sensor_id;sensor_type;location;lat;lon;timestamp;temperature;humidity
39219;DHT22;24934;52.752;6.964;2023-09-07T00:00:10;18.00;99.90
39219;DHT22;24934;52.752;6.964;2023-09-07T00:02:36;18.00;99.90
39219;DHT22;24934;52.752;6.964;2023-09-07T00:05:02;18.00;99.90
39219;DHT22;24934;52.752;6.964;2023-09-07T00:07:27;17.90;99.90
39219;DHT22;24934;52.752;6.964;2023-09-07T00:09:56;17.90;99.90
39219;DHT22;24934;52.752;6.964;2023-09-07T00:12:21;17.90;99.90
39219;DHT22;24934;52.752;6.964;2023-09-07T00:14:47;17.80;99.90
39219;DHT22;24934;52.752;6.964;2023-09-07T00:17:13;17.80;99.90
39219;DHT22;24934;52.752;6.964;2023-09-07T00:19:39;17.70;99.90
39219;DHT22;24934;52.752;6.964;2023-09-07T00:22:04;17.70;99.90
39219;DHT22;24934;52.752;6.964;2023-09-07T00:24:30;17.80;99.90
39219;DHT22;24934;52.752;6.964;2023-09-07T00:26:59;17.80;99.90
39219;DHT22;24934;52.752;6.964;2023-09-07T00:29:24;17.80;99.90
39219;DHT22;24934;52.752;6.964;2023-09-07T00:31:50;17.80;99.90
39219;DHT22;24934;52.752;6.964;2023-09-07T00:34:16;17.80;99.90
39219;DHT22;24934;52.752;6.964;2023-09-07T00:36:41;17.70;99.90
39219;DHT22;24934;52.752;6.964;2023-09-07T00:39:07;17.80;99.90
39219;DHT22;24934;52.752;6.964;2023-09-07T00:41:33;17.80;99.90
39219;DHT22;24934;52.752;6.964;2023-09-07T00:43:59;17.70;99.90
39219;DHT22;24934;52.752;6.964;2023-09-07T00:46:25;17.80;99.90
39219;DHT22;24934;52.752;6.964;2023-09-07T00:48:54;17.80;99.90
39219;DHT22;24934;52.752;6.964;2023-09-07T00:51:20;17.90;99.90
39219;DHT22;24934;52.752;6.964;2023-09-07T00:53:45;17.90;99.90
39219;DHT22;24934;52.752;6.964;2023-09-07T00:56:11;17.90;99.90
39219;DHT22;24934;52.752;6.964;2023-09-07T00:58:37;17.90;99.90
39219;DHT22;24934;52.752;6.964;2023-09-07T01:01:03;17.90;99.90
39219;DHT22;24934;52.752;6.964;2023-09-07T01:03:31;17.80;99.90
39219;DHT22;24934;52.752;6.964;2023-09-07T01:08:49;17.60;99.90
39219;DHT22;24934;52.752;6.964;2023-09-07T01:11:18;17.50;99.90
39219;DHT22;24934;52.752;6.964;2023-09-07T01:13:52;17.40;99.90
39219;DHT22;24934;52.752;6.964;2023-09-07T01:16:20;17.30;99.90
39219;DHT22;24934;52.752;6.964;2023-09-07T01:18:46;17.30;99.90
39219;DHT22;24934;52.752;6.964;2023-09-07T01:21:13;17.30;99.90
39219;DHT22;24934;52.752;6.964;2023-09-07T01:23:40;17.30;99.90
39219;DHT22;24934;52.752;6.964;2023-09-07T01:26:08;17.20;99.90
39219;DHT22;24934;52.752;6.964;2023-09-07T01:28:34;17.20;99.90
39219;DHT22;24934;52.752;6.964;2023-09-07T01:31:01;17.20;99.90
39219;DHT22;24934;52.752;6.964;2023-09-07T01:33:27;17.20;99.90
39219;DHT22;24934;52.752;6.964;2023-09-07T01:35:52;17.20;99.90
39219;DHT22;24934;52.752;6.964;2023-09-07T01:38:18;17.30;99.90
39219;DHT22;24934;52.752;6.964;2023-09-07T01:40:44;17.20;99.90
39219;DHT22;24934;52.752;6.964;2023-09-07T01:43:10;17.30;99.90
39219;DHT22;24934;52.752;6.964;2023-09-07T01:45:38;17.30;99.90
39219;DHT22;24934;52.752;6.964;2023-09-07T01:48:10;17.40;99.90
39219;DHT22;24934;52.752;6.964;2023-09-07T01:50:36;17.40;99.90
39219;DHT22;24934;52.752;6.964;2023-09-07T01:53:02;17.40;99.90
39219;DHT22;24934;52.752;6.964;2023-09-07T01:55:32;17.40;99.90
39219;DHT22;24934;52.752;6.964;2023-09-07T01:57:57;17.40;99.90
39219;DHT22;24934;52.752;6.964;2023-09-07T02:00:23;17.40;99.90
39219;DHT22;24934;52.752;6.964;2023-09-07T02:02:49;17.30;99.90
39219;DHT22;24934;52.752;6.964;2023-09-07T02:05:14;17.30;99.90
39219;DHT22;24934;52.752;6.964;2023-09-07T02:07:45;17.30;99.90
39219;DHT22;24934;52.752;6.964;2023-09-07T02:10:12;17.30;99.90
39219;DHT22;24934;52.752;6.964;2023-09-07T02:12:37;17.20;99.90
39219;DHT22;24934;52.752;6.964;2023-09-07T02:15:04;17.10;99.90
39219;DHT22;24934;52.752;6.964;2023-09-07T02:17:30;17.00;99.90
39219;DHT22;24934;52.752;6.964;2023-09-07T02:19:56;17.00;99.90
39219;DHT22;24934;52.752;6.964;2023-09-07T02:22:22;16.90;99.90
39219;DHT22;24934;52.752;6.964;2023-09-07T02:24:50;16.90;99.90
39219;DHT22;24934;52.752;6.964;2023-09-07T02:27:15;16.80;99.90
39219;DHT22;24934;52.752;6.964;2023-09-07T02:29:41;16.80;99.90
39219;DHT22;24934;52.752;6.964;2023-09-07T02:32:07;16.70;99.90
39219;DHT22;24934;52.752;6.964;2023-09-07T02:34:35;16.70;99.90
39219;DHT22;24934;52.752;6.964;2023-09-07T02:37:02;16.60;99.90
39219;DHT22;24934;52.752;6.964;2023-09-07T02:39:28;16.60;99.90
39219;DHT22;24934;52.752;6.964;2023-09-07T02:41:54;16.50;99.90
39219;DHT22;24934;52.752;6.964;2023-09-07T02:44:19;16.50;99.90
39219;DHT22;24934;52.752;6.964;2023-09-07T02:46:45;16.50;99.90
39219;DHT22;24934;52.752;6.964;2023-09-07T02:49:11;16.50;99.90
39219;DHT22;24934;52.752;6.964;2023-09-07T02:51:36;16.50;99.90
39219;DHT22;24934;52.752;6.964;2023-09-07T02:54:04;16.50;99.90
39219;DHT22;24934;52.752;6.964;2023-09-07T02:56:33;16.40;99.90
39219;DHT22;24934;52.752;6.964;2023-09-07T02:58:59;16.40;99.90
39219;DHT22;24934;52.752;6.964;2023-09-07T03:01:24;16.40;99.90
39219;DHT22;24934;52.752;6.964;2023-09-07T03:03:50;16.40;99.90
39219;DHT22;24934;52.752;6.964;2023-09-07T03:06:16;16.40;99.90
39219;DHT22;24934;52.752;6.964;2023-09-07T03:08:46;16.40;99.90
39219;DHT22;24934;52.752;6.964;2023-09-07T03:11:12;16.30;99.90
39219;DHT22;24934;52.752;6.964;2023-09-07T03:13:38;16.30;99.90
39219;DHT22;24934;52.752;6.964;2023-09-07T03:16:05;16.30;99.90
39219;DHT22;24934;52.752;6.964;2023-09-07T03:18:31;16.30;99.90
39219;DHT22;24934;52.752;6.964;2023-09-07T03:20:59;16.20;99.90
39219;DHT22;24934;52.752;6.964;2023-09-07T03:23:25;16.20;99.90
39219;DHT22;24934;52.752;6.964;2023-09-07T03:25:52;16.20;99.90
39219;DHT22;24934;52.752;6.964;2023-09-07T03:28:17;16.10;99.90
39219;DHT22;24934;52.752;6.964;2023-09-07T03:30:43;16.00;99.90
39219;DHT22;24934;52.752;6.964;2023-09-07T03:33:09;16.00;99.90
39219;DHT22;24934;52.752;6.964;2023-09-07T03:35:34;16.00;99.90
39219;DHT22;24934;52.752;6.964;2023-09-07T03:38:00;15.90;99.90
39219;DHT22;24934;52.752;6.964;2023-09-07T03:40:26;15.90;99.90
39219;DHT22;24934;52.752;6.964;2023-09-07T03:42:52;15.80;99.90
39219;DHT22;24934;52.752;6.964;2023-09-07T03:45:17;15.80;99.90
39219;DHT22;24934;52.752;6.964;2023-09-07T03:47:43;15.80;99.90
39219;DHT22;24934;52.752;6.964;2023-09-07T03:50:10;15.70;99.90
39219;DHT22;24934;52.752;6.964;2023-09-07T03:52:36;15.70;99.90
39219;DHT22;24934;52.752;6.964;2023-09-07T03:55:02;15.70;99.90
39219;DHT22;24934;52.752;6.964;2023-09-07T03:57:28;15.60;99.90
39219;DHT22;24934;52.752;6.964;2023-09-07T03:59:54;15.60;99.90
39219;DHT22;24934;52.752;6.964;2023-09-07T04:02:23;15.50;99.90
39219;DHT22;24934;52.752;6.964;2023-09-07T04:04:57;15.50;99.90
39219;DHT22;24934;52.752;6.964;2023-09-07T04:07:23;15.40;99.90
39219;DHT22;24934;52.752;6.964;2023-09-07T04:09:50;15.50;99.90
39219;DHT22;24934;52.752;6.964;2023-09-07T04:12:15;15.40;99.90
39219;DHT22;24934;52.752;6.964;2023-09-07T04:14:41;15.40;99.90
39219;DHT22;24934;52.752;6.964;2023-09-07T04:17:08;15.40;99.90
39219;DHT22;24934;52.752;6.964;2023-09-07T04:19:34;15.30;99.90
39219;DHT22;24934;52.752;6.964;2023-09-07T04:22:00;15.20;99.90
39219;DHT22;24934;52.752;6.964;2023-09-07T04:24:29;15.10;99.90
39219;DHT22;24934;52.752;6.964;2023-09-07T04:27:01;15.10;99.90
39219;DHT22;24934;52.752;6.964;2023-09-07T04:29:30;15.00;99.90
39219;DHT22;24934;52.752;6.964;2023-09-07T04:31:56;15.00;99.90
39219;DHT22;24934;52.752;6.964;2023-09-07T04:34:22;15.00;99.90
39219;DHT22;24934;52.752;6.964;2023-09-07T04:36:48;15.10;99.90
39219;DHT22;24934;52.752;6.964;2023-09-07T04:39:14;15.10;99.90
39219;DHT22;24934;52.752;6.964;2023-09-07T04:41:43;15.10;99.90
39219;DHT22;24934;52.752;6.964;2023-09-07T04:44:14;15.20;99.90
39219;DHT22;24934;52.752;6.964;2023-09-07T04:46:40;15.20;99.90
39219;DHT22;24934;52.752;6.964;2023-09-07T04:49:13;15.30;99.90
39219;DHT22;24934;52.752;6.964;2023-09-07T04:51:39;15.30;99.90
39219;DHT22;24934;52.752;6.964;2023-09-07T04:54:05;15.30;99.90
39219;DHT22;24934;52.752;6.964;2023-09-07T04:56:30;15.40;99.90
39219;DHT22;24934;52.752;6.964;2023-09-07T04:58:56;15.40;99.90
39219;DHT22;24934;52.752;6.964;2023-09-07T05:01:21;15.40;99.90
39219;DHT22;24934;52.752;6.964;2023-09-07T05:03:49;15.30;99.90
39219;DHT22;24934;52.752;6.964;2023-09-07T05:06:16;15.30;99.90
39219;DHT22;24934;52.752;6.964;2023-09-07T05:08:42;15.20;99.90
39219;DHT22;24934;52.752;6.964;2023-09-07T05:11:07;15.30;99.90
39219;DHT22;24934;52.752;6.964;2023-09-07T05:13:33;15.20;99.90
39219;DHT22;24934;52.752;6.964;2023-09-07T05:16:00;15.20;99.90
39219;DHT22;24934;52.752;6.964;2023-09-07T05:18:30;15.20;99.90
39219;DHT22;24934;52.752;6.964;2023-09-07T05:20:55;15.10;99.90
39219;DHT22;24934;52.752;6.964;2023-09-07T05:23:22;15.10;99.90
39219;DHT22;24934;52.752;6.964;2023-09-07T05:25:50;15.20;99.90
39219;DHT22;24934;52.752;6.964;2023-09-07T05:28:18;15.20;99.90
39219;DHT22;24934;52.752;6.964;2023-09-07T05:30:44;15.20;99.90
39219;DHT22;24934;52.752;6.964;2023-09-07T05:33:11;15.30;99.90
39219;DHT22;24934;52.752;6.964;2023-09-07T05:35:37;15.40;99.90
39219;DHT22;24934;52.752;6.964;2023-09-07T05:38:04;15.70;99.90
39219;DHT22;24934;52.752;6.964;2023-09-07T05:40:44;15.80;99.90
39219;DHT22;24934;52.752;6.964;2023-09-07T05:43:11;16.00;99.90
39219;DHT22;24934;52.752;6.964;2023-09-07T05:45:39;16.20;99.90
39219;DHT22;24934;52.752;6.964;2023-09-07T05:48:05;16.30;99.90
39219;DHT22;24934;52.752;6.964;2023-09-07T05:50:35;16.40;99.90
39219;DHT22;24934;52.752;6.964;2023-09-07T05:53:01;16.70;99.90
39219;DHT22;24934;52.752;6.964;2023-09-07T05:55:27;17.00;99.90
39219;DHT22;24934;52.752;6.964;2023-09-07T05:57:57;17.10;99.90
39219;DHT22;24934;52.752;6.964;2023-09-07T06:00:23;17.50;99.90
39219;DHT22;24934;52.752;6.964;2023-09-07T06:02:49;18.10;99.90
39219;DHT22;24934;52.752;6.964;2023-09-07T06:05:15;18.60;99.90
39219;DHT22;24934;52.752;6.964;2023-09-07T06:07:54;19.00;99.90
39219;DHT22;24934;52.752;6.964;2023-09-07T06:10:20;19.10;99.90
39219;DHT22;24934;52.752;6.964;2023-09-07T06:12:45;19.20;99.90
39219;DHT22;24934;52.752;6.964;2023-09-07T06:15:11;19.20;99.90
39219;DHT22;24934;52.752;6.964;2023-09-07T06:17:37;19.40;99.90
39219;DHT22;24934;52.752;6.964;2023-09-07T06:20:03;20.30;99.90
39219;DHT22;24934;52.752;6.964;2023-09-07T06:22:28;21.50;99.90
39219;DHT22;24934;52.752;6.964;2023-09-07T06:24:54;22.80;99.90
39219;DHT22;24934;52.752;6.964;2023-09-07T06:27:20;23.90;99.90
39219;DHT22;24934;52.752;6.964;2023-09-07T06:29:46;24.50;99.90
39219;DHT22;24934;52.752;6.964;2023-09-07T06:32:17;24.90;99.90
39219;DHT22;24934;52.752;6.964;2023-09-07T06:34:44;24.70;99.90
39219;DHT22;24934;52.752;6.964;2023-09-07T06:37:11;24.40;99.90
39219;DHT22;24934;52.752;6.964;2023-09-07T06:39:37;25.00;99.90
39219;DHT22;24934;52.752;6.964;2023-09-07T06:42:03;25.70;99.90
39219;DHT22;24934;52.752;6.964;2023-09-07T06:44:29;26.30;99.90
39219;DHT22;24934;52.752;6.964;2023-09-07T06:46:54;27.00;99.90
39219;DHT22;24934;52.752;6.964;2023-09-07T06:49:21;27.90;99.90
39219;DHT22;24934;52.752;6.964;2023-09-07T06:51:48;28.40;99.90
39219;DHT22;24934;52.752;6.964;2023-09-07T06:54:14;28.90;99.90
39219;DHT22;24934;52.752;6.964;2023-09-07T06:56:39;29.10;99.90
39219;DHT22;24934;52.752;6.964;2023-09-07T06:59:05;29.80;99.90
39219;DHT22;24934;52.752;6.964;2023-09-07T07:01:31;30.80;99.90
39219;DHT22;24934;52.752;6.964;2023-09-07T07:03:56;30.90;99.90
39219;DHT22;24934;52.752;6.964;2023-09-07T07:06:23;31.20;99.90
39219;DHT22;24934;52.752;6.964;2023-09-07T07:08:49;31.40;99.90
39219;DHT22;24934;52.752;6.964;2023-09-07T07:11:19;31.30;99.90
39219;DHT22;24934;52.752;6.964;2023-09-07T07:13:45;31.90;99.90
39219;DHT22;24934;52.752;6.964;2023-09-07T07:16:11;32.10;99.90
39219;DHT22;24934;52.752;6.964;2023-09-07T07:18:36;31.80;99.90
39219;DHT22;24934;52.752;6.964;2023-09-07T07:21:02;32.90;99.90
39219;DHT22;24934;52.752;6.964;2023-09-07T07:23:28;32.80;99.90
39219;DHT22;24934;52.752;6.964;2023-09-07T07:25:53;33.00;99.90
39219;DHT22;24934;52.752;6.964;2023-09-07T07:28:19;32.90;99.90
39219;DHT22;24934;52.752;6.964;2023-09-07T07:30:44;32.90;99.90
39219;DHT22;24934;52.752;6.964;2023-09-07T07:33:10;32.90;99.90
39219;DHT22;24934;52.752;6.964;2023-09-07T07:35:37;33.20;99.90
39219;DHT22;24934;52.752;6.964;2023-09-07T07:38:04;33.10;99.90
39219;DHT22;24934;52.752;6.964;2023-09-07T07:40:30;32.90;99.90
39219;DHT22;24934;52.752;6.964;2023-09-07T07:42:56;32.50;99.90
39219;DHT22;24934;52.752;6.964;2023-09-07T07:45:22;32.50;99.90
39219;DHT22;24934;52.752;6.964;2023-09-07T07:47:51;32.60;99.90
39219;DHT22;24934;52.752;6.964;2023-09-07T07:50:17;32.90;99.90
39219;DHT22;24934;52.752;6.964;2023-09-07T07:52:43;33.40;99.90
39219;DHT22;24934;52.752;6.964;2023-09-07T07:55:10;34.30;99.90
39219;DHT22;24934;52.752;6.964;2023-09-07T07:57:38;33.50;99.90
39219;DHT22;24934;52.752;6.964;2023-09-07T08:00:05;33.40;99.90
39219;DHT22;24934;52.752;6.964;2023-09-07T08:02:32;33.50;99.90
39219;DHT22;24934;52.752;6.964;2023-09-07T08:04:57;33.40;99.90
39219;DHT22;24934;52.752;6.964;2023-09-07T08:07:24;34.00;99.90
39219;DHT22;24934;52.752;6.964;2023-09-07T08:09:50;33.60;99.90
39219;DHT22;24934;52.752;6.964;2023-09-07T08:12:16;33.40;99.90
39219;DHT22;24934;52.752;6.964;2023-09-07T08:14:42;33.00;99.90
39219;DHT22;24934;52.752;6.964;2023-09-07T08:17:08;33.50;99.90
39219;DHT22;24934;52.752;6.964;2023-09-07T08:19:34;33.90;99.90
39219;DHT22;24934;52.752;6.964;2023-09-07T08:22:00;33.50;99.90
39219;DHT22;24934;52.752;6.964;2023-09-07T08:24:29;33.00;99.90
39219;DHT22;24934;52.752;6.964;2023-09-07T08:26:54;32.70;99.90
39219;DHT22;24934;52.752;6.964;2023-09-07T08:29:23;32.90;99.90
39219;DHT22;24934;52.752;6.964;2023-09-07T08:31:52;32.70;99.90
39219;DHT22;24934;52.752;6.964;2023-09-07T08:34:19;33.30;99.90
39219;DHT22;24934;52.752;6.964;2023-09-07T08:36:47;33.50;99.90
39219;DHT22;24934;52.752;6.964;2023-09-07T08:39:15;33.50;99.90
39219;DHT22;24934;52.752;6.964;2023-09-07T08:41:41;33.20;99.90
39219;DHT22;24934;52.752;6.964;2023-09-07T08:44:16;33.50;99.90
39219;DHT22;24934;52.752;6.964;2023-09-07T08:46:43;33.20;99.90
39219;DHT22;24934;52.752;6.964;2023-09-07T08:49:09;32.40;99.90
39219;DHT22;24934;52.752;6.964;2023-09-07T08:51:35;32.50;99.90
39219;DHT22;24934;52.752;6.964;2023-09-07T08:54:07;32.60;99.90
39219;DHT22;24934;52.752;6.964;2023-09-07T08:56:33;33.00;99.90
39219;DHT22;24934;52.752;6.964;2023-09-07T08:58:59;33.20;99.90
39219;DHT22;24934;52.752;6.964;2023-09-07T09:01:24;33.50;99.90
39219;DHT22;24934;52.752;6.964;2023-09-07T09:03:50;33.30;99.90
39219;DHT22;24934;52.752;6.964;2023-09-07T09:06:20;33.80;99.90
39219;DHT22;24934;52.752;6.964;2023-09-07T09:08:49;34.60;99.90
39219;DHT22;24934;52.752;6.964;2023-09-07T09:11:18;34.20;99.90
39219;DHT22;24934;52.752;6.964;2023-09-07T09:13:44;34.40;99.90
39219;DHT22;24934;52.752;6.964;2023-09-07T09:16:10;34.20;99.90
39219;DHT22;24934;52.752;6.964;2023-09-07T09:18:36;33.80;99.90
39219;DHT22;24934;52.752;6.964;2023-09-07T09:21:03;33.70;99.90
39219;DHT22;24934;52.752;6.964;2023-09-07T09:23:34;33.50;99.90
39219;DHT22;24934;52.752;6.964;2023-09-07T09:26:01;33.60;99.90
39219;DHT22;24934;52.752;6.964;2023-09-07T09:28:26;33.50;99.90
39219;DHT22;24934;52.752;6.964;2023-09-07T09:30:57;33.80;99.90
39219;DHT22;24934;52.752;6.964;2023-09-07T09:33:23;33.60;99.90
39219;DHT22;24934;52.752;6.964;2023-09-07T09:35:49;33.90;99.90
39219;DHT22;24934;52.752;6.964;2023-09-07T09:38:15;34.00;99.90
39219;DHT22;24934;52.752;6.964;2023-09-07T09:40:45;33.70;99.90
39219;DHT22;24934;52.752;6.964;2023-09-07T09:43:12;33.00;99.90
39219;DHT22;24934;52.752;6.964;2023-09-07T09:45:38;32.60;99.90
39219;DHT22;24934;52.752;6.964;2023-09-07T09:48:05;32.20;99.90
39219;DHT22;24934;52.752;6.964;2023-09-07T09:50:32;31.70;99.90
39219;DHT22;24934;52.752;6.964;2023-09-07T09:53:01;31.60;99.90
39219;DHT22;24934;52.752;6.964;2023-09-07T09:55:29;31.80;99.90
39219;DHT22;24934;52.752;6.964;2023-09-07T09:57:56;31.60;99.90
39219;DHT22;24934;52.752;6.964;2023-09-07T10:00:23;32.30;99.90
39219;DHT22;24934;52.752;6.964;2023-09-07T10:03:04;32.70;99.90
39219;DHT22;24934;52.752;6.964;2023-09-07T10:05:31;32.50;99.90
39219;DHT22;24934;52.752;6.964;2023-09-07T10:08:03;32.70;99.90
39219;DHT22;24934;52.752;6.964;2023-09-07T10:10:36;33.20;99.90
39219;DHT22;24934;52.752;6.964;2023-09-07T10:13:02;33.90;99.90
39219;DHT22;24934;52.752;6.964;2023-09-07T10:15:29;34.10;99.90
39219;DHT22;24934;52.752;6.964;2023-09-07T10:18:16;34.20;99.20
39219;DHT22;24934;52.752;6.964;2023-09-07T10:20:56;34.00;99.30
39219;DHT22;24934;52.752;6.964;2023-09-07T10:23:35;33.90;99.30
39219;DHT22;24934;52.752;6.964;2023-09-07T10:26:03;34.00;99.40
39219;DHT22;24934;52.752;6.964;2023-09-07T10:28:31;34.10;99.80
39219;DHT22;24934;52.752;6.964;2023-09-07T10:31:14;34.10;99.40
39219;DHT22;24934;52.752;6.964;2023-09-07T10:33:41;34.50;99.90
39219;DHT22;24934;52.752;6.964;2023-09-07T10:36:24;34.80;99.90
39219;DHT22;24934;52.752;6.964;2023-09-07T10:38:51;35.10;99.90
39219;DHT22;24934;52.752;6.964;2023-09-07T10:41:19;35.10;99.70
39219;DHT22;24934;52.752;6.964;2023-09-07T10:43:49;35.00;99.10
39219;DHT22;24934;52.752;6.964;2023-09-07T10:46:18;35.10;99.70
39219;DHT22;24934;52.752;6.964;2023-09-07T10:48:45;35.00;99.00
39219;DHT22;24934;52.752;6.964;2023-09-07T10:51:13;34.40;99.60
39219;DHT22;24934;52.752;6.964;2023-09-07T10:53:39;34.70;99.60
39219;DHT22;24934;52.752;6.964;2023-09-07T10:56:05;34.60;99.50
39219;DHT22;24934;52.752;6.964;2023-09-07T10:58:33;34.40;99.90
39219;DHT22;24934;52.752;6.964;2023-09-07T11:00:59;34.30;99.20
39219;DHT22;24934;52.752;6.964;2023-09-07T11:03:26;33.90;99.90
39219;DHT22;24934;52.752;6.964;2023-09-07T11:06:16;33.90;99.10
39219;DHT22;24934;52.752;6.964;2023-09-07T11:08:45;33.80;99.90
39219;DHT22;24934;52.752;6.964;2023-09-07T11:11:11;34.00;99.90
39219;DHT22;24934;52.752;6.964;2023-09-07T11:13:37;33.80;99.90
39219;DHT22;24934;52.752;6.964;2023-09-07T11:16:06;33.70;99.90
39219;DHT22;24934;52.752;6.964;2023-09-07T11:18:33;33.50;99.90
39219;DHT22;24934;52.752;6.964;2023-09-07T11:21:02;33.40;99.90
39219;DHT22;24934;52.752;6.964;2023-09-07T11:23:31;33.40;99.90
39219;DHT22;24934;52.752;6.964;2023-09-07T11:26:07;33.70;99.90
39219;DHT22;24934;52.752;6.964;2023-09-07T11:28:32;33.80;99.70
39219;DHT22;24934;52.752;6.964;2023-09-07T11:30:59;33.70;99.90
39219;DHT22;24934;52.752;6.964;2023-09-07T11:33:25;33.50;99.50
39219;DHT22;24934;52.752;6.964;2023-09-07T11:35:52;33.30;99.90
39219;DHT22;24934;52.752;6.964;2023-09-07T11:38:20;33.10;99.90
39219;DHT22;24934;52.752;6.964;2023-09-07T11:40:49;33.40;99.90
39219;DHT22;24934;52.752;6.964;2023-09-07T11:43:15;33.10;99.00
39219;DHT22;24934;52.752;6.964;2023-09-07T11:45:42;33.00;99.80
39219;DHT22;24934;52.752;6.964;2023-09-07T11:48:08;32.90;99.90
39219;DHT22;24934;52.752;6.964;2023-09-07T11:50:43;32.90;99.90
39219;DHT22;24934;52.752;6.964;2023-09-07T11:53:10;33.10;99.90
39219;DHT22;24934;52.752;6.964;2023-09-07T11:55:36;33.00;99.90
39219;DHT22;24934;52.752;6.964;2023-09-07T11:58:03;33.10;99.90
39219;DHT22;24934;52.752;6.964;2023-09-07T12:00:32;33.10;99.90
39219;DHT22;24934;52.752;6.964;2023-09-07T12:03:02;33.10;99.90
39219;DHT22;24934;52.752;6.964;2023-09-07T12:05:28;32.90;99.50
39219;DHT22;24934;52.752;6.964;2023-09-07T12:07:53;32.80;99.90
39219;DHT22;24934;52.752;6.964;2023-09-07T12:10:19;32.70;99.90
39219;DHT22;24934;52.752;6.964;2023-09-07T12:12:44;32.50;99.70
39219;DHT22;24934;52.752;6.964;2023-09-07T12:15:11;32.50;99.90
39219;DHT22;24934;52.752;6.964;2023-09-07T12:17:39;32.40;99.90
39219;DHT22;24934;52.752;6.964;2023-09-07T12:20:05;32.50;99.90
39219;DHT22;24934;52.752;6.964;2023-09-07T12:22:37;32.70;99.90
39219;DHT22;24934;52.752;6.964;2023-09-07T12:25:07;32.80;99.90
39219;DHT22;24934;52.752;6.964;2023-09-07T12:27:36;33.00;99.90
39219;DHT22;24934;52.752;6.964;2023-09-07T12:30:02;32.90;99.90
39219;DHT22;24934;52.752;6.964;2023-09-07T12:32:32;32.80;99.90
39219;DHT22;24934;52.752;6.964;2023-09-07T12:34:58;32.90;99.90
39219;DHT22;24934;52.752;6.964;2023-09-07T12:37:24;32.90;99.90
39219;DHT22;24934;52.752;6.964;2023-09-07T12:39:51;33.10;99.90
39219;DHT22;24934;52.752;6.964;2023-09-07T12:42:17;33.10;99.90
39219;DHT22;24934;52.752;6.964;2023-09-07T12:44:43;33.10;99.90
39219;DHT22;24934;52.752;6.964;2023-09-07T12:47:09;32.80;99.90
39219;DHT22;24934;52.752;6.964;2023-09-07T12:49:35;32.90;99.90
39219;DHT22;24934;52.752;6.964;2023-09-07T12:52:00;32.80;99.90
39219;DHT22;24934;52.752;6.964;2023-09-07T12:54:28;32.80;99.90
39219;DHT22;24934;52.752;6.964;2023-09-07T12:56:54;32.70;99.90
39219;DHT22;24934;52.752;6.964;2023-09-07T12:59:19;32.50;99.90
39219;DHT22;24934;52.752;6.964;2023-09-07T13:01:45;32.50;99.90
39219;DHT22;24934;52.752;6.964;2023-09-07T13:04:11;32.30;99.90
39219;DHT22;24934;52.752;6.964;2023-09-07T13:06:37;32.40;99.90
39219;DHT22;24934;52.752;6.964;2023-09-07T13:09:03;32.40;99.90
39219;DHT22;24934;52.752;6.964;2023-09-07T13:11:30;32.50;99.90
39219;DHT22;24934;52.752;6.964;2023-09-07T13:13:55;32.40;99.80
39219;DHT22;24934;52.752;6.964;2023-09-07T13:16:21;32.50;99.90
39219;DHT22;24934;52.752;6.964;2023-09-07T13:18:47;32.60;99.40
39219;DHT22;24934;52.752;6.964;2023-09-07T13:21:12;32.40;99.40
39219;DHT22;24934;52.752;6.964;2023-09-07T13:23:38;32.30;99.40
39219;DHT22;24934;52.752;6.964;2023-09-07T13:26:03;32.30;99.70
39219;DHT22;24934;52.752;6.964;2023-09-07T13:28:29;32.20;99.90
39219;DHT22;24934;52.752;6.964;2023-09-07T13:30:55;32.20;99.90
39219;DHT22;24934;52.752;6.964;2023-09-07T13:33:20;32.40;99.40
39219;DHT22;24934;52.752;6.964;2023-09-07T13:35:46;32.50;99.50
39219;DHT22;24934;52.752;6.964;2023-09-07T13:38:12;32.20;99.00
39219;DHT22;24934;52.752;6.964;2023-09-07T13:40:40;32.20;99.30
39219;DHT22;24934;52.752;6.964;2023-09-07T13:43:06;32.10;99.00
39219;DHT22;24934;52.752;6.964;2023-09-07T13:45:32;32.00;99.60
39219;DHT22;24934;52.752;6.964;2023-09-07T13:47:59;31.90;98.90
39219;DHT22;24934;52.752;6.964;2023-09-07T13:50:26;32.10;99.90
39219;DHT22;24934;52.752;6.964;2023-09-07T13:52:51;32.00;99.60
39219;DHT22;24934;52.752;6.964;2023-09-07T13:55:20;32.00;99.60
39219;DHT22;24934;52.752;6.964;2023-09-07T13:57:45;32.00;99.70
39219;DHT22;24934;52.752;6.964;2023-09-07T14:00:13;32.00;99.90
39219;DHT22;24934;52.752;6.964;2023-09-07T14:02:38;32.20;99.90
39219;DHT22;24934;52.752;6.964;2023-09-07T14:05:04;32.20;99.80
39219;DHT22;24934;52.752;6.964;2023-09-07T14:07:30;32.20;99.60
39219;DHT22;24934;52.752;6.964;2023-09-07T14:09:56;32.30;99.90
39219;DHT22;24934;52.752;6.964;2023-09-07T14:12:22;32.20;99.90
39219;DHT22;24934;52.752;6.964;2023-09-07T14:14:48;32.10;99.90
39219;DHT22;24934;52.752;6.964;2023-09-07T14:17:14;32.00;99.90
39219;DHT22;24934;52.752;6.964;2023-09-07T14:19:40;31.80;99.90
39219;DHT22;24934;52.752;6.964;2023-09-07T14:22:05;31.70;99.90
39219;DHT22;24934;52.752;6.964;2023-09-07T14:24:31;31.70;99.90
39219;DHT22;24934;52.752;6.964;2023-09-07T14:26:56;31.80;99.90
39219;DHT22;24934;52.752;6.964;2023-09-07T14:29:22;32.00;99.90
39219;DHT22;24934;52.752;6.964;2023-09-07T14:31:48;31.80;99.90
39219;DHT22;24934;52.752;6.964;2023-09-07T14:34:14;31.90;99.90
39219;DHT22;24934;52.752;6.964;2023-09-07T14:36:39;32.00;99.90
39219;DHT22;24934;52.752;6.964;2023-09-07T14:39:08;31.80;99.90
39219;DHT22;24934;52.752;6.964;2023-09-07T14:41:35;31.80;99.90
39219;DHT22;24934;52.752;6.964;2023-09-07T14:44:01;31.70;99.90
39219;DHT22;24934;52.752;6.964;2023-09-07T14:46:26;31.90;99.90
39219;DHT22;24934;52.752;6.964;2023-09-07T14:48:52;31.90;99.90
39219;DHT22;24934;52.752;6.964;2023-09-07T14:51:18;31.80;99.90
39219;DHT22;24934;52.752;6.964;2023-09-07T14:53:44;31.60;99.90
39219;DHT22;24934;52.752;6.964;2023-09-07T14:56:10;31.60;99.50
39219;DHT22;24934;52.752;6.964;2023-09-07T14:58:36;31.60;99.20
39219;DHT22;24934;52.752;6.964;2023-09-07T15:01:02;31.60;99.30
39219;DHT22;24934;52.752;6.964;2023-09-07T15:03:31;31.50;99.90
39219;DHT22;24934;52.752;6.964;2023-09-07T15:05:57;31.50;99.90
39219;DHT22;24934;52.752;6.964;2023-09-07T15:08:23;31.40;99.30
39219;DHT22;24934;52.752;6.964;2023-09-07T15:10:49;31.50;99.90
39219;DHT22;24934;52.752;6.964;2023-09-07T15:13:15;31.60;99.90
39219;DHT22;24934;52.752;6.964;2023-09-07T15:15:41;31.50;99.90
39219;DHT22;24934;52.752;6.964;2023-09-07T15:18:07;31.40;99.90
39219;DHT22;24934;52.752;6.964;2023-09-07T15:20:33;31.30;99.90
39219;DHT22;24934;52.752;6.964;2023-09-07T15:22:59;31.60;99.90
39219;DHT22;24934;52.752;6.964;2023-09-07T15:25:25;31.50;99.90
39219;DHT22;24934;52.752;6.964;2023-09-07T15:27:54;31.50;99.90
39219;DHT22;24934;52.752;6.964;2023-09-07T15:30:20;31.40;99.90